EKEB

Esbjerg Airport

Esbjerg, Denmark
METAR EKEB 240326Z 31016KT 8000 -TSRA FEW025CB SCT035TCU 09/06 Q1019
Observed Flight Rules
Sep-24 @ 03:26 UTC (50 minutes ago) Marginal Visual Flight Rules
Wind Visibility Clouds Conditions
310° at 16 knots 7,998 meters
  • Few at 2,500' AGL
  • Scattered at 3,500' AGL
  • Light Thunderstorm
  • Light Rain
Temperatures Readings
Current 9°C / 48°F
Dewpoint 6°C / 43°F
Humidity 82%
Altimeter 30.09" Hg
Pressure 1019 hPa
Elevation 29
METAR EKEB 240326Z 31016KT 8000 -TSRA FEW025CB SCT035TCU 09/06 Q1019
Observed Flight Rules
Sep-24 @ 03:26 UTC
(50 minutes ago)
MVFR
Wind Visibility
310° at 16 knots 7,998 meters
Clouds
  • Few at 2,500' AGL
  • Scattered at 3,500' AGL
Conditions
  • Light Thunderstorm
  • Light Rain
Temperature Dewpoint
9°C / 48°F 6°C / 43°F
Humidity Altimeter Pressure
82% 30.09" Hg 1019 hPa